Estación Meteorológica Peña el Pijo (Robertgarden) [ 12/09/19 17:12:25 CET ]

Fecha Hora Presion(HPa) Temp (°C) Humedad % Rocio (°C) Viento ( m/s) Direccion Lluvia 1Hora(mm) Lluvia 24H(mm) LLuvia Total(mm)
2019-Nov-15 01:01:50 993.400 2.9 84 0.4     0.51 2.07 27.45
2019-Nov-15 02:03:17 992.700 2.9 86 0.8 2.4 NNW   2.07 27.45
2019-Nov-15 03:05:21 992.400 2.7 85 0.4       2.07 27.45
2019-Nov-15 04:01:55 992.200 2.4 85 0.1       2.07 27.45
2019-Nov-15 05:01:18 991.800 2.6 85 0.3       2.07 27.45
2019-Nov-15 06:01:49 991.800 2.3 84 -0.2       2.07 27.45
2019-Nov-15 07:01:48 992.300 2.2 83 -0.4       2.07 27.45
2019-Nov-15 08:01:51 992.900 2.4 82 -0.4       2.07 27.45
2019-Nov-15 09:01:47 993.600 2.4 82 -0.4       2.07 27.45
2019-Nov-15 10:01:58 994.300 2.9 77 -0.7 1.9 NNW   2.07 27.45
2019-Nov-15 11:01:48 994.800 4.0 74 -0.2       2.07 27.45
2019-Nov-15 12:01:48 995.000 4.4 71 -0.4       2.07 27.45
2019-Nov-15 13:01:38 994.300 3.5 75 -0.5       2.07 27.45
2019-Nov-15 14:01:41 993.900 5.2 68 -0.2       1.03 27.45
2019-Nov-15 15:01:51 994.100 4.7 66 -0.9       1.03 27.45
2019-Nov-15 16:01:58 993.800 4.7 67 -0.9       1.03 27.45
2019-Nov-15 17:01:37 994.100 3.9 67 -1.7       1.03 27.45
2019-Nov-15 18:01:43 994.400 2.3 72 -2.2       1.03 27.45
2019-Nov-15 19:01:45 994.900 0.9 75 -3.1       1.03 27.45
2019-Nov-15 20:01:42 995.200 0.3 77 -3.3       1.03 27.45
2019-Nov-15 21:01:53 995.500 -0.4 80 -3.4       1.03 27.45
2019-Nov-15 22:01:48 996.100 0.5 82 -2.2       1.03 27.45
2019-Nov-15 23:01:50 996.700 1.4 83 -1.2       0.51 27.45

Temperatura Máxima:    Temperatura Mínima:
Presión Máxima:996.700 Hpa    Presión Mínima:991.800 Hpa


Volver